createdAt,value
2019-02-24T00:01:41.773Z,32.00
2019-02-24T00:04:09.332Z,31.90
2019-02-24T00:06:36.903Z,31.60
2019-02-24T00:09:04.499Z,30.50
2019-02-24T00:11:32.064Z,30.70
2019-02-24T00:13:59.633Z,31.60
2019-02-24T00:16:27.202Z,31.30
2019-02-24T00:18:54.758Z,30.40
2019-02-24T00:21:23.303Z,30.00
2019-02-24T00:23:50.859Z,30.00
2019-02-24T00:26:18.427Z,30.30
2019-02-24T00:28:46.001Z,31.30
2019-02-24T00:31:13.566Z,30.10
2019-02-24T00:33:41.119Z,30.00
2019-02-24T00:36:08.683Z,30.30
2019-02-24T00:38:37.194Z,30.20
2019-02-24T00:41:04.753Z,30.90
2019-02-24T00:43:33.227Z,30.00
2019-02-24T00:46:00.796Z,30.50
2019-02-24T00:48:28.352Z,30.80
2019-02-24T00:50:57.864Z,30.40
2019-02-24T00:53:25.430Z,30.40
2019-02-24T00:55:53.012Z,30.40
2019-02-24T00:58:21.535Z,30.60
2019-02-24T01:00:50.026Z,30.20
2019-02-24T01:03:19.495Z,30.40
2019-02-24T01:05:47.061Z,29.90
2019-02-24T01:08:14.627Z,30.00
2019-02-24T01:10:42.187Z,29.70
2019-02-24T01:13:09.744Z,29.80
2019-02-24T01:15:37.301Z,29.60
2019-02-24T01:18:04.855Z,29.40
2019-02-24T01:20:32.418Z,29.60
2019-02-24T01:22:59.980Z,29.40
2019-02-24T01:25:27.539Z,29.40
2019-02-24T01:27:55.863Z,29.50
2019-02-24T01:30:23.423Z,29.40
2019-02-24T01:32:50.987Z,29.10
2019-02-24T01:35:19.542Z,28.80
2019-02-24T01:37:49.007Z,32.00
2019-02-24T01:40:16.564Z,36.40
2019-02-24T01:42:44.149Z,40.20
2019-02-24T01:45:14.315Z,45.80
2019-02-24T01:47:41.876Z,46.30
2019-02-24T01:50:09.443Z,47.20
2019-02-24T01:52:37.965Z,48.90
2019-02-24T01:55:06.288Z,53.60
2019-02-24T01:57:33.855Z,53.60
2019-02-24T02:00:02.380Z,54.80
2019-02-24T02:02:29.944Z,55.60
2019-02-24T02:04:58.607Z,57.40
2019-02-24T02:07:26.655Z,57.90
2019-02-24T02:09:54.215Z,57.80
2019-02-24T02:12:21.780Z,57.60
2019-02-24T02:14:49.343Z,58.00
2019-02-24T02:17:16.924Z,58.90
2019-02-24T02:19:44.492Z,59.60
2019-02-24T02:22:12.052Z,60.50
2019-02-24T02:24:39.624Z,61.40
2019-02-24T02:27:07.194Z,62.30
2019-02-24T02:29:35.675Z,62.50
2019-02-24T02:32:03.236Z,62.70
2019-02-24T02:34:30.800Z,62.70
2019-02-24T02:36:58.360Z,63.10
2019-02-24T02:39:27.846Z,63.50
2019-02-24T02:41:55.405Z,64.00
2019-02-24T02:44:22.975Z,64.60
2019-02-24T02:46:50.536Z,64.50
2019-02-24T02:49:18.113Z,64.40
2019-02-24T02:51:45.687Z,64.30
2019-02-24T02:54:15.176Z,64.40
2019-02-24T02:56:42.748Z,65.50
2019-02-24T02:59:10.316Z,67.10
2019-02-24T03:01:38.643Z,66.70
2019-02-24T03:04:06.211Z,66.60
2019-02-24T03:06:36.545Z,67.30
2019-02-24T03:09:04.116Z,67.40
2019-02-24T03:11:32.444Z,67.70
2019-02-24T03:14:00.009Z,67.50
2019-02-24T03:16:27.585Z,67.50
2019-02-24T03:18:55.152Z,67.60
2019-02-24T03:21:22.724Z,68.40
2019-02-24T03:23:50.305Z,68.10
2019-02-24T03:26:17.898Z,68.10
2019-02-24T03:28:45.462Z,68.30
2019-02-24T03:31:13.026Z,68.30
2019-02-24T03:33:40.597Z,69.50
2019-02-24T03:36:08.176Z,70.00
2019-02-24T03:38:36.663Z,70.30
2019-02-24T03:41:04.999Z,70.50
2019-02-24T03:43:32.580Z,70.50
2019-02-24T03:46:00.148Z,70.80
2019-02-24T03:48:28.611Z,70.40
2019-02-24T03:50:57.174Z,71.30
2019-02-24T03:53:24.783Z,70.90
2019-02-24T03:55:52.359Z,71.10
2019-02-24T03:58:19.941Z,71.60
2019-02-24T04:00:47.516Z,71.60
2019-02-24T04:03:15.082Z,72.00
2019-02-24T04:05:42.675Z,72.70
2019-02-24T04:08:10.241Z,72.90
2019-02-24T04:10:37.806Z,72.70
2019-02-24T04:13:05.366Z,73.40
2019-02-24T04:15:33.031Z,73.10
2019-02-24T04:18:02.537Z,73.30
2019-02-24T04:20:30.115Z,74.20
2019-02-24T04:22:59.612Z,74.40
2019-02-24T04:25:28.138Z,74.50
2019-02-24T04:27:56.465Z,75.40
2019-02-24T04:30:24.023Z,75.40
2019-02-24T04:32:51.582Z,75.90
2019-02-24T04:35:19.151Z,76.30
2019-02-24T04:37:46.718Z,76.20
2019-02-24T04:40:14.284Z,76.20
2019-02-24T04:42:41.846Z,77.10
2019-02-24T04:45:10.175Z,79.60
2019-02-24T04:47:37.744Z,79.60
2019-02-24T04:50:05.307Z,80.10
2019-02-24T04:52:32.873Z,81.30
2019-02-24T04:55:00.451Z,82.30
2019-02-24T04:57:28.012Z,83.00
2019-02-24T04:59:57.503Z,83.90
2019-02-24T05:02:25.063Z,84.60
2019-02-24T05:04:52.643Z,85.70
2019-02-24T05:07:22.109Z,86.80
2019-02-24T05:09:49.697Z,88.60
2019-02-24T05:12:20.008Z,90.50
2019-02-24T05:14:47.571Z,90.50
2019-02-24T05:17:17.079Z,90.90
2019-02-24T05:19:45.624Z,91.50
2019-02-24T05:22:14.095Z,91.90
2019-02-24T05:24:41.663Z,92.80
2019-02-24T05:27:09.227Z,93.50
2019-02-24T05:29:45.166Z,93.60
2019-02-24T05:32:04.756Z,94.10
2019-02-24T05:34:32.324Z,93.90
2019-02-24T05:36:59.908Z,94.90
2019-02-24T05:39:27.471Z,95.00
2019-02-24T05:41:55.139Z,95.30
2019-02-24T05:44:22.699Z,96.10
2019-02-24T05:46:50.264Z,95.70
2019-02-24T05:49:18.743Z,95.80
2019-02-24T05:51:46.317Z,97.00
2019-02-24T05:54:13.883Z,97.90
2019-02-24T05:56:41.457Z,98.50
2019-02-24T05:59:09.804Z,99.90
2019-02-24T06:01:37.375Z,99.90
2019-02-24T06:04:04.947Z,99.90
2019-02-24T06:06:32.515Z,99.90
2019-02-24T06:09:00.841Z,99.90
2019-02-24T06:11:28.413Z,99.90
2019-02-24T06:13:57.905Z,99.90
2019-02-24T06:16:25.472Z,99.90
2019-02-24T06:18:53.062Z,99.90
2019-02-24T06:21:20.627Z,99.90
2019-02-24T06:23:48.967Z,99.90
2019-02-24T06:26:16.535Z,99.90
2019-02-24T06:28:44.104Z,99.90
2019-02-24T06:31:11.672Z,99.90
2019-02-24T06:33:40.009Z,99.90
2019-02-24T06:36:08.207Z,99.90
2019-02-24T06:38:35.770Z,99.90
2019-02-24T06:41:03.330Z,99.90
2019-02-24T06:43:30.887Z,99.90
2019-02-24T06:45:58.457Z,99.90
2019-02-24T06:48:26.028Z,99.90
2019-02-24T06:50:56.219Z,99.90
2019-02-24T06:53:23.801Z,99.90
2019-02-24T06:55:51.374Z,99.90
2019-02-24T06:58:18.945Z,99.90
2019-02-24T07:00:46.502Z,99.90
2019-02-24T07:03:14.061Z,99.90
2019-02-24T07:05:42.558Z,99.90
2019-02-24T07:08:12.026Z,99.90
2019-02-24T07:10:39.592Z,99.90
2019-02-24T07:13:07.205Z,99.90
2019-02-24T07:15:35.708Z,99.90
2019-02-24T07:18:03.385Z,99.90
2019-02-24T07:20:31.140Z,99.90
2019-02-24T07:22:58.716Z,99.90
2019-02-24T07:25:27.340Z,99.90
2019-02-24T07:27:55.972Z,99.90
2019-02-24T07:30:23.673Z,99.90
2019-02-24T07:32:51.135Z,99.90
2019-02-24T07:35:20.905Z,99.90
2019-02-24T07:37:48.472Z,99.90
2019-02-24T07:40:16.085Z,99.90
2019-02-24T07:42:43.658Z,99.90
2019-02-24T07:45:11.235Z,99.90
2019-02-24T07:47:38.799Z,99.90
2019-02-24T07:50:06.359Z,99.90
2019-02-24T07:52:33.926Z,99.90
2019-02-24T07:55:01.492Z,99.90
2019-02-24T07:57:30.968Z,99.90
2019-02-24T07:59:58.531Z,99.90
2019-02-24T08:02:26.105Z,99.90
2019-02-24T08:04:53.662Z,99.90
2019-02-24T08:07:21.224Z,99.90
2019-02-24T08:09:48.804Z,99.90
2019-02-24T08:12:16.375Z,99.90
2019-02-24T08:14:44.707Z,99.90
2019-02-24T08:17:14.183Z,99.90
2019-02-24T08:19:41.742Z,99.90
2019-02-24T08:22:09.300Z,99.90
2019-02-24T08:24:36.864Z,99.90
2019-02-24T08:27:04.429Z,99.90
2019-02-24T08:29:31.987Z,99.90
2019-02-24T08:31:59.644Z,99.90
2019-02-24T08:34:27.203Z,99.90
2019-02-24T08:36:54.759Z,99.90
2019-02-24T08:39:22.330Z,99.90
2019-02-24T08:41:49.896Z,99.90
2019-02-24T08:44:17.463Z,99.90
2019-02-24T08:46:45.028Z,99.90
2019-02-24T08:49:12.594Z,99.90
2019-02-24T08:51:40.155Z,99.90
2019-02-24T08:54:07.724Z,99.90
2019-02-24T08:56:37.927Z,98.10
2019-02-24T08:59:05.491Z,98.10
2019-02-24T09:01:33.063Z,98.40
2019-02-24T09:04:00.623Z,97.80
2019-02-24T09:06:28.196Z,96.10
2019-02-24T09:08:55.780Z,95.30
2019-02-24T09:11:23.350Z,95.10
2019-02-24T09:13:50.953Z,94.90
2019-02-24T09:16:18.513Z,94.20
2019-02-24T09:18:46.094Z,94.00
2019-02-24T09:21:13.669Z,93.40
2019-02-24T09:23:41.228Z,92.60
2019-02-24T09:26:08.787Z,92.20
2019-02-24T09:28:36.347Z,92.60
2019-02-24T09:31:03.911Z,91.40
2019-02-24T09:33:32.415Z,91.50
2019-02-24T09:35:59.980Z,90.60
2019-02-24T09:38:28.303Z,90.60
2019-02-24T09:40:55.861Z,90.60
2019-02-24T09:43:24.379Z,89.60
2019-02-24T09:45:52.507Z,89.30
2019-02-24T09:48:20.075Z,87.80
2019-02-24T09:50:47.638Z,85.80
2019-02-24T09:53:15.199Z,82.70
2019-02-24T09:55:42.759Z,82.20
2019-02-24T09:58:10.313Z,81.30
2019-02-24T10:00:37.871Z,79.40
2019-02-24T10:03:05.443Z,78.50
2019-02-24T10:05:33.020Z,76.20
2019-02-24T10:08:00.583Z,76.10
2019-02-24T10:10:28.912Z,73.20
2019-02-24T10:12:56.471Z,73.10
2019-02-24T10:15:24.031Z,73.10
2019-02-24T10:17:51.592Z,72.40
2019-02-24T10:20:19.151Z,72.80
2019-02-24T10:22:46.708Z,68.60
2019-02-24T10:25:14.330Z,65.20
2019-02-24T10:27:41.883Z,67.20
2019-02-24T10:30:10.240Z,68.80
2019-02-24T10:32:37.801Z,70.10
2019-02-24T10:35:05.372Z,66.00
2019-02-24T10:37:32.936Z,65.80
2019-02-24T10:40:01.452Z,62.60
2019-02-24T10:42:29.013Z,61.90
2019-02-24T10:44:56.643Z,64.10
2019-02-24T10:47:24.213Z,63.90
2019-02-24T10:49:51.787Z,63.40
2019-02-24T10:52:19.351Z,63.90
2019-02-24T10:54:46.903Z,64.10
2019-02-24T10:57:14.473Z,63.40
2019-02-24T10:59:42.035Z,63.70
2019-02-24T11:02:11.529Z,64.50
2019-02-24T11:04:39.089Z,63.50
2019-02-24T11:07:06.650Z,61.80
2019-02-24T11:09:34.211Z,60.00
2019-02-24T11:12:01.773Z,58.60
2019-02-24T11:14:30.104Z,60.00
2019-02-24T11:16:58.659Z,59.80
2019-02-24T11:19:26.216Z,60.00
2019-02-24T11:21:53.773Z,58.00
2019-02-24T11:24:21.339Z,59.30
2019-02-24T11:26:48.903Z,60.60
2019-02-24T11:29:16.464Z,62.20
2019-02-24T11:31:44.031Z,62.50
2019-02-24T11:34:11.587Z,62.90
2019-02-24T11:36:40.063Z,62.90
2019-02-24T11:39:07.624Z,63.00
2019-02-24T11:41:35.187Z,62.30
2019-02-24T11:44:02.748Z,61.70
2019-02-24T11:46:30.316Z,62.20
2019-02-24T11:48:59.820Z,63.10
2019-02-24T11:51:27.388Z,62.10
2019-02-24T11:53:54.944Z,60.40
2019-02-24T11:56:22.508Z,62.00
2019-02-24T11:58:50.073Z,58.60
2019-02-24T12:01:17.647Z,57.90
2019-02-24T12:03:45.974Z,56.80
2019-02-24T12:06:13.541Z,56.80
2019-02-24T12:08:41.111Z,58.80
2019-02-24T12:11:09.646Z,57.50
2019-02-24T12:13:37.309Z,57.50
2019-02-24T12:16:04.872Z,57.40
2019-02-24T12:18:32.431Z,56.90
2019-02-24T12:20:59.995Z,57.30
2019-02-24T12:23:27.554Z,57.30
2019-02-24T12:25:55.121Z,57.30
2019-02-24T12:28:22.683Z,56.90
2019-02-24T12:30:50.260Z,57.90
2019-02-24T12:33:17.829Z,57.80
2019-02-24T12:35:45.399Z,57.30
2019-02-24T12:38:12.968Z,57.50
2019-02-24T12:40:40.638Z,57.30
2019-02-24T12:43:08.308Z,57.00
2019-02-24T12:45:35.875Z,57.00
2019-02-24T12:48:03.447Z,57.40
2019-02-24T12:50:31.073Z,57.10
2019-02-24T12:53:00.554Z,58.30
2019-02-24T12:55:29.139Z,57.70
2019-02-24T12:57:56.699Z,57.70
2019-02-24T13:00:24.268Z,57.70
2019-02-24T13:02:53.811Z,57.30
2019-02-24T13:05:21.407Z,56.70
2019-02-24T13:07:48.969Z,56.20
2019-02-24T13:10:16.693Z,56.40
2019-02-24T13:12:44.268Z,56.30
2019-02-24T13:15:13.259Z,56.30
2019-02-24T13:17:41.595Z,56.40
2019-02-24T13:20:10.000Z,56.30
2019-02-24T13:22:36.784Z,55.80
2019-02-24T13:25:04.370Z,56.80
2019-02-24T13:27:31.936Z,56.20
2019-02-24T13:29:59.515Z,55.70
2019-02-24T13:32:27.991Z,55.20
2019-02-24T13:34:55.547Z,54.80
2019-02-24T13:37:24.027Z,54.30
2019-02-24T13:39:51.589Z,55.40
2019-02-24T13:42:19.162Z,54.90
2019-02-24T13:44:46.729Z,54.70
2019-02-24T13:47:14.291Z,55.40
2019-02-24T13:49:43.042Z,55.20
2019-02-24T13:52:09.472Z,55.20
2019-02-24T13:54:37.031Z,55.60
2019-02-24T13:57:05.365Z,54.40
2019-02-24T13:59:32.940Z,54.40
2019-02-24T14:02:01.979Z,54.50
2019-02-24T14:04:28.119Z,55.40
2019-02-24T14:06:55.687Z,55.20
2019-02-24T14:09:23.255Z,55.10
2019-02-24T14:11:50.831Z,55.10
2019-02-24T14:14:19.347Z,55.70
2019-02-24T14:16:46.921Z,55.80
2019-02-24T14:19:14.478Z,54.90
2019-02-24T14:21:42.164Z,54.40
2019-02-24T14:24:10.659Z,54.30
2019-02-24T14:26:38.224Z,54.20
2019-02-24T14:29:05.792Z,54.50
2019-02-24T14:31:33.356Z,53.80
2019-02-24T14:34:00.915Z,53.50
2019-02-24T14:36:28.481Z,52.50
2019-02-24T14:38:56.808Z,53.30
2019-02-24T14:41:24.367Z,53.20
2019-02-24T14:43:51.926Z,53.60
2019-02-24T14:46:19.491Z,53.60
2019-02-24T14:48:48.959Z,52.70
2019-02-24T14:51:16.919Z,52.50
2019-02-24T14:53:44.502Z,52.60
2019-02-24T14:56:12.067Z,53.10
2019-02-24T14:58:39.628Z,53.20
2019-02-24T15:01:07.374Z,53.90
2019-02-24T15:03:35.052Z,53.10
2019-02-24T15:06:02.616Z,52.80
2019-02-24T15:08:30.188Z,52.60
2019-02-24T15:10:57.760Z,52.80
2019-02-24T15:13:25.324Z,52.50
2019-02-24T15:15:52.895Z,52.70
2019-02-24T15:18:21.375Z,52.40
2019-02-24T15:20:48.935Z,52.90
2019-02-24T15:23:16.499Z,53.50
2019-02-24T15:25:44.069Z,54.30
2019-02-24T15:28:11.628Z,54.90
2019-02-24T15:30:39.195Z,55.40
2019-02-24T15:33:06.756Z,55.50
2019-02-24T15:35:34.395Z,56.00
2019-02-24T15:38:03.883Z,56.10
2019-02-24T15:40:31.467Z,57.00
2019-02-24T15:42:59.040Z,55.90
2019-02-24T15:45:27.556Z,55.90
2019-02-24T15:47:55.346Z,56.20
2019-02-24T15:50:22.907Z,57.00
2019-02-24T15:52:50.474Z,59.20
2019-02-24T15:55:18.058Z,59.10
2019-02-24T15:57:45.622Z,58.40
2019-02-24T16:00:14.064Z,58.70
2019-02-24T16:02:41.629Z,58.70
2019-02-24T16:05:09.195Z,58.30
2019-02-24T16:07:36.764Z,58.90
2019-02-24T16:10:04.339Z,60.50
2019-02-24T16:12:33.828Z,67.70
2019-02-24T16:15:01.387Z,70.10
2019-02-24T16:17:28.946Z,72.20
2019-02-24T16:19:56.506Z,72.60
2019-02-24T16:22:25.273Z,72.30
2019-02-24T16:24:54.743Z,73.00
2019-02-24T16:27:22.299Z,73.80
2019-02-24T16:29:50.186Z,74.60
2019-02-24T16:32:17.775Z,74.90
2019-02-24T16:34:45.333Z,76.00
2019-02-24T16:37:12.891Z,76.60
2019-02-24T16:39:41.551Z,77.30
2019-02-24T16:42:09.120Z,78.40
2019-02-24T16:44:36.687Z,79.10
2019-02-24T16:47:04.251Z,80.60
2019-02-24T16:49:31.822Z,80.90
2019-02-24T16:51:59.392Z,81.70
2019-02-24T16:54:27.729Z,83.10
2019-02-24T16:56:55.296Z,83.00
2019-02-24T16:59:22.866Z,83.60
2019-02-24T17:01:50.440Z,84.60
2019-02-24T17:04:19.777Z,85.80
2019-02-24T17:06:48.892Z,86.70
2019-02-24T17:09:17.059Z,86.70
2019-02-24T17:11:45.033Z,87.20
2019-02-24T17:14:13.611Z,88.40
2019-02-24T17:16:41.367Z,89.10
2019-02-24T17:19:09.836Z,90.30
2019-02-24T17:21:37.515Z,90.60
2019-02-24T17:24:05.560Z,91.00
2019-02-24T17:26:33.616Z,91.60
2019-02-24T17:29:01.591Z,92.30
2019-02-24T17:31:29.655Z,93.20
2019-02-24T17:33:57.521Z,93.80
2019-02-24T17:36:25.341Z,94.20
2019-02-24T17:38:53.003Z,94.20
2019-02-24T17:41:21.572Z,94.50
2019-02-24T17:43:49.495Z,95.10
2019-02-24T17:46:17.263Z,95.50
2019-02-24T17:48:44.940Z,95.80
2019-02-24T17:51:20.904Z,96.10
2019-02-24T17:53:42.772Z,96.60
2019-02-24T17:56:09.091Z,96.90
2019-02-24T17:58:38.075Z,97.20
2019-02-24T18:01:05.822Z,97.50
2019-02-24T18:03:39.512Z,98.10
2019-02-24T18:06:01.411Z,98.60
2019-02-24T18:08:29.157Z,99.60
2019-02-24T18:10:57.200Z,99.90
2019-02-24T18:13:25.266Z,99.90
2019-02-24T18:15:52.838Z,99.90
2019-02-24T18:18:21.167Z,99.90
2019-02-24T18:20:48.736Z,99.90
2019-02-24T18:23:16.297Z,99.90
2019-02-24T18:25:44.779Z,99.90
2019-02-24T18:28:12.343Z,99.90
2019-02-24T18:30:39.911Z,99.90
2019-02-24T18:33:07.475Z,99.90
2019-02-24T18:35:35.804Z,99.90
2019-02-24T18:38:03.365Z,99.90
2019-02-24T18:40:30.931Z,99.90
2019-02-24T18:43:00.630Z,99.90
2019-02-24T18:45:26.103Z,99.90
2019-02-24T18:47:53.666Z,99.90
2019-02-24T18:50:21.238Z,99.90
2019-02-24T18:52:50.723Z,99.90
2019-02-24T18:55:18.296Z,99.90
2019-02-24T18:57:45.864Z,99.90
2019-02-24T19:00:19.455Z,99.90
2019-02-24T19:02:47.023Z,99.90
2019-02-24T19:05:14.588Z,99.90
2019-02-24T19:07:42.156Z,99.90
2019-02-24T19:10:21.337Z,99.90
2019-02-24T19:12:48.167Z,99.90
2019-02-24T19:15:15.741Z,99.90
2019-02-24T19:17:43.309Z,99.90
2019-02-24T19:20:12.498Z,99.90
2019-02-24T19:22:40.052Z,99.90
2019-02-24T19:25:07.607Z,99.90
2019-02-24T19:27:35.173Z,99.90
2019-02-24T19:30:03.708Z,99.90
2019-02-24T19:32:31.271Z,99.90
2019-02-24T19:34:59.596Z,99.90
2019-02-24T19:37:27.165Z,99.90
2019-02-24T19:39:54.727Z,99.90
2019-02-24T19:42:22.291Z,99.90
2019-02-24T19:44:51.766Z,99.90
2019-02-24T19:47:19.332Z,99.90
2019-02-24T19:49:46.903Z,99.90
2019-02-24T19:52:14.635Z,99.90
2019-02-24T19:54:42.297Z,99.90
2019-02-24T19:57:09.855Z,99.90
2019-02-24T19:59:38.363Z,99.90
2019-02-24T20:02:05.938Z,99.90
2019-02-24T20:04:35.238Z,99.90
2019-02-24T20:07:02.831Z,99.90
2019-02-24T20:09:32.319Z,99.90
2019-02-24T20:12:00.650Z,99.90
2019-02-24T20:14:28.215Z,99.90
2019-02-24T20:16:55.942Z,99.90
2019-02-24T20:19:23.503Z,99.90
2019-02-24T20:21:51.067Z,99.90
2019-02-24T20:24:18.628Z,99.90
2019-02-24T20:26:47.215Z,99.90
2019-02-24T20:29:14.784Z,99.90
2019-02-24T20:31:42.342Z,99.90
2019-02-24T20:34:09.897Z,99.90
2019-02-24T20:36:37.472Z,99.90
2019-02-24T20:39:05.039Z,99.90
2019-02-24T20:41:32.603Z,99.90
2019-02-24T20:44:00.928Z,99.90
2019-02-24T20:46:28.492Z,99.90
2019-02-24T20:48:57.968Z,99.90
2019-02-24T20:51:25.543Z,99.90
2019-02-24T20:53:53.121Z,99.90
2019-02-24T20:56:21.643Z,99.90
2019-02-24T20:58:49.967Z,99.90
2019-02-24T21:01:17.535Z,99.90
2019-02-24T21:03:46.067Z,84.50
2019-02-24T21:06:13.627Z,73.10
2019-02-24T21:08:42.112Z,61.80
2019-02-24T21:11:09.702Z,59.60
2019-02-24T21:13:37.264Z,58.20
2019-02-24T21:16:04.833Z,53.40
2019-02-24T21:18:32.413Z,51.00
2019-02-24T21:21:00.740Z,49.50
2019-02-24T21:23:29.300Z,49.50
2019-02-24T21:25:57.275Z,47.00
2019-02-24T21:28:25.782Z,48.70
2019-02-24T21:30:53.439Z,47.00
2019-02-24T21:33:21.140Z,44.90
2019-02-24T21:35:49.476Z,41.70
2019-02-24T21:38:17.194Z,41.60
2019-02-24T21:40:46.094Z,41.00
2019-02-24T21:43:15.146Z,40.10
2019-02-24T21:45:42.935Z,39.20
2019-02-24T21:48:10.630Z,39.70
2019-02-24T21:50:39.459Z,39.50
2019-02-24T21:53:07.932Z,37.40
2019-02-24T21:55:35.489Z,37.30
2019-02-24T21:58:04.436Z,37.50
2019-02-24T22:00:31.470Z,39.00
2019-02-24T22:03:00.948Z,38.20
2019-02-24T22:05:29.440Z,36.80
2019-02-24T22:07:57.000Z,36.30
2019-02-24T22:10:24.560Z,36.30
2019-02-24T22:12:52.116Z,36.60
2019-02-24T22:15:22.429Z,37.00
2019-02-24T22:17:51.943Z,37.00
2019-02-24T22:20:19.507Z,37.50
2019-02-24T22:22:47.591Z,37.90
2019-02-24T22:25:15.156Z,38.80
2019-02-24T22:27:42.715Z,38.90
2019-02-24T22:30:14.677Z,39.40
2019-02-24T22:32:42.248Z,40.10
2019-02-24T22:35:09.807Z,39.70
2019-02-24T22:37:39.310Z,40.50
2019-02-24T22:40:12.560Z,42.20
2019-02-24T22:42:40.217Z,41.70
2019-02-24T22:45:08.576Z,41.40
2019-02-24T22:47:37.305Z,41.60
2019-02-24T22:50:04.864Z,41.40
2019-02-24T22:52:32.418Z,41.00
2019-02-24T22:54:59.967Z,40.30
2019-02-24T22:57:27.672Z,42.70
2019-02-24T22:59:55.228Z,42.80
2019-02-24T23:02:23.564Z,43.80
2019-02-24T23:04:51.146Z,43.80
2019-02-24T23:07:20.635Z,42.40
2019-02-24T23:09:48.202Z,40.80
2019-02-24T23:12:16.178Z,40.70
2019-02-24T23:14:43.731Z,39.70
2019-02-24T23:17:13.976Z,40.10
2019-02-24T23:19:41.607Z,40.10
2019-02-24T23:22:09.163Z,40.30
2019-02-24T23:24:38.636Z,39.90
2019-02-24T23:27:07.114Z,40.20
2019-02-24T23:29:34.668Z,40.60
2019-02-24T23:32:02.225Z,40.90
2019-02-24T23:34:29.779Z,41.20
2019-02-24T23:36:57.345Z,40.90
2019-02-24T23:39:25.815Z,41.20
2019-02-24T23:41:53.376Z,41.70
2019-02-24T23:44:20.937Z,41.90
2019-02-24T23:46:48.505Z,42.10
2019-02-24T23:49:17.987Z,42.10
2019-02-24T23:51:46.129Z,42.00
2019-02-24T23:54:13.699Z,42.00
2019-02-24T23:56:41.262Z,41.50
2019-02-24T23:59:08.832Z,42.30
